createdAt,value
2018-06-04T00:00:50.240Z,15.3
2018-06-04T00:01:52.249Z,15.3
2018-06-04T00:02:54.241Z,15.2
2018-06-04T00:03:56.248Z,15.2
2018-06-04T00:04:58.249Z,15.2
2018-06-04T00:06:00.255Z,15.2
2018-06-04T00:07:02.646Z,15.2
2018-06-04T00:08:04.649Z,15.2
2018-06-04T00:09:06.637Z,15.2
2018-06-04T00:10:08.639Z,15.2
2018-06-04T00:11:10.630Z,15.2
2018-06-04T00:12:13.016Z,15.2
2018-06-04T00:13:15.023Z,15.2
2018-06-04T00:14:17.016Z,15.2
2018-06-04T00:15:19.018Z,15.2
2018-06-04T00:16:21.309Z,15.1
2018-06-04T00:17:23.303Z,15.1
2018-06-04T00:18:25.699Z,15.1
2018-06-04T00:19:27.683Z,15.1
2018-06-04T00:20:29.696Z,15.1
2018-06-04T00:21:31.697Z,15
2018-06-04T00:22:33.698Z,15
2018-06-04T00:23:35.701Z,14.9
2018-06-04T00:24:37.694Z,14.9
2018-06-04T00:25:39.980Z,14.9
2018-06-04T00:26:41.980Z,14.9
2018-06-04T00:27:44.254Z,14.9
2018-06-04T00:28:46.543Z,14.9
2018-06-04T00:29:48.542Z,14.9
2018-06-04T00:30:50.546Z,14.9
2018-06-04T00:31:52.543Z,14.9
2018-06-04T00:32:54.839Z,14.8
2018-06-04T00:33:56.842Z,14.8
2018-06-04T00:34:59.130Z,14.9
2018-06-04T00:36:01.132Z,14.9
2018-06-04T00:37:03.129Z,14.9
2018-06-04T00:38:05.135Z,14.9
2018-06-04T00:39:07.122Z,14.9
2018-06-04T00:40:09.120Z,14.8
2018-06-04T00:41:11.117Z,14.8
2018-06-04T00:42:13.121Z,14.9
2018-06-04T00:43:15.123Z,14.9
2018-06-04T00:44:17.108Z,14.8
2018-06-04T00:45:19.107Z,14.9
2018-06-04T00:46:21.107Z,14.8
2018-06-04T00:47:23.101Z,14.9
2018-06-04T00:48:25.096Z,15
2018-06-04T00:49:27.100Z,14.9
2018-06-04T00:50:29.103Z,14.9
2018-06-04T00:51:31.094Z,14.9
2018-06-04T00:52:33.099Z,14.9
2018-06-04T00:53:35.105Z,14.9
2018-06-04T00:54:37.097Z,14.9
2018-06-04T00:55:39.099Z,14.8
2018-06-04T00:56:41.088Z,14.9
2018-06-04T00:57:43.091Z,14.8
2018-06-04T00:58:45.088Z,14.8
2018-06-04T00:59:47.087Z,14.9
2018-06-04T01:00:49.875Z,14.8
2018-06-04T01:01:51.871Z,14.8
2018-06-04T01:02:53.864Z,14.8
2018-06-04T01:03:56.156Z,14.8
2018-06-04T01:04:58.150Z,14.7
2018-06-04T01:06:00.149Z,14.7
2018-06-04T01:07:02.173Z,14.8
2018-06-04T01:08:04.445Z,14.8
2018-06-04T01:09:06.823Z,14.7
2018-06-04T01:10:08.824Z,14.7
2018-06-04T01:11:10.820Z,14.7
2018-06-04T01:12:12.824Z,14.6
2018-06-04T01:13:14.829Z,14.6
2018-06-04T01:14:17.125Z,14.6
2018-06-04T01:15:19.111Z,14.6
2018-06-04T01:16:21.412Z,14.6
2018-06-04T01:17:23.405Z,14.6
2018-06-04T01:18:25.793Z,14.6
2018-06-04T01:19:28.372Z,14.5
2018-06-04T01:20:30.650Z,14.6
2018-06-04T01:21:33.226Z,14.5
2018-06-04T01:22:35.234Z,14.6
2018-06-04T01:23:37.227Z,14.6
2018-06-04T01:24:39.238Z,14.5
2018-06-04T01:25:41.226Z,14.6
2018-06-04T01:26:43.242Z,14.5
2018-06-04T01:27:45.240Z,14.5
2018-06-04T01:28:47.239Z,14.5
2018-06-04T01:29:49.237Z,14.5
2018-06-04T01:30:51.614Z,14.4
2018-06-04T01:31:53.620Z,14.4
2018-06-04T01:32:55.896Z,14.4
2018-06-04T01:33:57.885Z,14.4
2018-06-04T01:35:00.561Z,14.4
2018-06-04T01:36:02.852Z,14.4
2018-06-04T01:37:04.850Z,14.4
2018-06-04T01:38:07.124Z,14.4
2018-06-04T01:39:09.130Z,14.4
2018-06-04T01:40:11.131Z,14.4
2018-06-04T01:41:13.138Z,14.4
2018-06-04T01:42:15.135Z,14.3
2018-06-04T01:43:17.131Z,14.3
2018-06-04T01:44:19.511Z,14.3
2018-06-04T01:45:21.501Z,14.3
2018-06-04T01:46:23.490Z,14.3
2018-06-04T01:47:25.871Z,14.3
2018-06-04T01:48:27.882Z,14.3
2018-06-04T01:49:29.883Z,14.3
2018-06-04T01:50:31.868Z,14.3
2018-06-04T01:51:33.867Z,14.3
2018-06-04T01:52:35.867Z,14.3
2018-06-04T01:53:37.863Z,14.3
2018-06-04T01:54:39.890Z,14.3
2018-06-04T01:55:41.871Z,14.2
2018-06-04T01:56:43.870Z,14.2
2018-06-04T01:57:45.854Z,14.2
2018-06-04T01:58:48.700Z,14.3
2018-06-04T01:59:50.698Z,14.2
2018-06-04T02:00:52.704Z,14.2
2018-06-04T02:01:54.706Z,14.2
2018-06-04T02:02:57.096Z,14.3
2018-06-04T02:03:59.760Z,14.3
2018-06-04T02:05:01.756Z,14.2
2018-06-04T02:06:03.763Z,14.2
2018-06-04T02:07:05.772Z,14.2
2018-06-04T02:08:07.766Z,14.2
2018-06-04T02:09:10.049Z,14.2
2018-06-04T02:10:12.041Z,14.2
2018-06-04T02:11:14.045Z,14.2
2018-06-04T02:12:16.988Z,14.2
2018-06-04T02:13:18.980Z,14.2
2018-06-04T02:14:21.266Z,14.2
2018-06-04T02:15:23.554Z,14.2
2018-06-04T02:16:25.545Z,14.2
2018-06-04T02:17:27.551Z,14.2
2018-06-04T02:18:30.111Z,14.2
2018-06-04T02:19:32.400Z,14.1
2018-06-04T02:20:34.395Z,14.1
2018-06-04T02:21:36.398Z,14.1
2018-06-04T02:22:38.392Z,14.1
2018-06-04T02:23:40.666Z,14.1
2018-06-04T02:24:42.670Z,14
2018-06-04T02:25:44.668Z,14
2018-06-04T02:26:46.667Z,14
2018-06-04T02:27:48.663Z,14
2018-06-04T02:28:50.693Z,14
2018-06-04T02:29:52.676Z,13.9
2018-06-04T02:30:55.249Z,13.9
2018-06-04T02:31:57.528Z,13.9
2018-06-04T02:32:59.520Z,13.9
2018-06-04T02:34:01.521Z,13.9
2018-06-04T02:35:03.801Z,13.9
2018-06-04T02:36:06.185Z,13.9
2018-06-04T02:37:08.486Z,13.9
2018-06-04T02:38:10.746Z,13.9
2018-06-04T02:39:13.026Z,13.9
2018-06-04T02:40:15.338Z,13.9
2018-06-04T02:41:17.338Z,13.9
2018-06-04T02:42:19.326Z,13.9
2018-06-04T02:43:21.742Z,13.8
2018-06-04T02:44:24.025Z,13.9
2018-06-04T02:45:26.697Z,13.9
2018-06-04T02:46:28.702Z,13.8
2018-06-04T02:47:30.993Z,13.9
2018-06-04T02:48:33.654Z,13.8
2018-06-04T02:49:36.022Z,13.8
2018-06-04T02:50:38.026Z,13.9
2018-06-04T02:51:40.694Z,13.8
2018-06-04T02:52:42.687Z,13.8
2018-06-04T02:53:44.972Z,13.8
2018-06-04T02:54:46.970Z,13.8
2018-06-04T02:55:49.264Z,13.8
2018-06-04T02:56:51.636Z,13.8
2018-06-04T02:57:54.012Z,13.8
2018-06-04T02:58:56.027Z,13.8
2018-06-04T02:59:58.021Z,13.8
2018-06-04T03:01:00.409Z,13.8
2018-06-04T03:02:02.676Z,13.8
2018-06-04T03:03:04.995Z,13.8
2018-06-04T03:04:06.989Z,13.8
2018-06-04T03:05:09.276Z,13.8
2018-06-04T03:06:11.592Z,13.8
2018-06-04T03:07:13.862Z,13.8
2018-06-04T03:08:15.861Z,13.7
2018-06-04T03:09:17.860Z,13.8
2018-06-04T03:10:20.154Z,13.8
2018-06-04T03:11:22.165Z,13.7
2018-06-04T03:12:24.451Z,13.7
2018-06-04T03:13:26.450Z,13.7
2018-06-04T03:14:28.448Z,13.7
2018-06-04T03:15:30.440Z,13.7
2018-06-04T03:16:32.441Z,13.7
2018-06-04T03:17:34.725Z,13.6
2018-06-04T03:18:36.715Z,13.6
2018-06-04T03:19:38.719Z,13.6
2018-06-04T03:20:40.709Z,13.6
2018-06-04T03:21:42.713Z,13.6
2018-06-04T03:22:44.714Z,13.6
2018-06-04T03:23:46.716Z,13.6
2018-06-04T03:24:48.711Z,13.7
2018-06-04T03:25:50.708Z,13.7
2018-06-04T03:26:52.697Z,13.7
2018-06-04T03:27:54.707Z,13.7
2018-06-04T03:28:57.077Z,13.7
2018-06-04T03:29:59.085Z,13.8
2018-06-04T03:31:01.646Z,13.8
2018-06-04T03:32:04.309Z,13.8
2018-06-04T03:33:06.610Z,13.8
2018-06-04T03:34:08.890Z,13.8
2018-06-04T03:35:10.892Z,13.8
2018-06-04T03:36:12.894Z,13.8
2018-06-04T03:37:14.878Z,13.9
2018-06-04T03:38:16.893Z,13.9
2018-06-04T03:39:19.157Z,13.9
2018-06-04T03:40:21.154Z,14
2018-06-04T03:41:23.152Z,13.9
2018-06-04T03:42:25.150Z,13.9
2018-06-04T03:43:27.154Z,13.9
2018-06-04T03:44:29.145Z,13.9
2018-06-04T03:45:31.142Z,13.9
2018-06-04T03:46:33.155Z,13.8
2018-06-04T03:47:35.420Z,13.9
2018-06-04T03:48:37.425Z,13.9
2018-06-04T03:49:40.372Z,13.9
2018-06-04T03:50:42.381Z,13.9
2018-06-04T03:51:44.371Z,13.9
2018-06-04T03:52:46.366Z,13.9
2018-06-04T03:53:48.362Z,13.9
2018-06-04T03:54:50.744Z,13.9
2018-06-04T03:55:52.741Z,14
2018-06-04T03:56:54.744Z,14
2018-06-04T03:57:56.737Z,14
2018-06-04T03:58:58.727Z,14.1
2018-06-04T04:00:00.721Z,14.1
2018-06-04T04:01:02.729Z,14.1
2018-06-04T04:02:04.726Z,14.2
2018-06-04T04:03:06.723Z,14.2
2018-06-04T04:04:08.717Z,14.3
2018-06-04T04:05:10.711Z,14.4
2018-06-04T04:06:12.700Z,14.4
2018-06-04T04:07:14.698Z,14.4
2018-06-04T04:08:16.707Z,14.4
2018-06-04T04:09:18.701Z,14.4
2018-06-04T04:10:20.682Z,14.4
2018-06-04T04:11:22.678Z,14.4
2018-06-04T04:12:24.682Z,14.4
2018-06-04T04:13:26.676Z,14.4
2018-06-04T04:14:28.684Z,14.6
2018-06-04T04:15:30.679Z,14.6
2018-06-04T04:16:32.680Z,14.6
2018-06-04T04:17:34.679Z,14.6
2018-06-04T04:18:36.671Z,14.7
2018-06-04T04:19:38.651Z,14.7
2018-06-04T04:20:40.661Z,14.7
2018-06-04T04:21:42.660Z,14.7
2018-06-04T04:22:44.658Z,14.8
2018-06-04T04:23:47.029Z,14.9
2018-06-04T04:24:49.032Z,14.9
2018-06-04T04:25:51.031Z,14.9
2018-06-04T04:26:53.021Z,14.9
2018-06-04T04:27:55.458Z,14.9
2018-06-04T04:28:57.414Z,14.9
2018-06-04T04:29:59.405Z,15
2018-06-04T04:31:01.393Z,15
2018-06-04T04:32:03.684Z,15
2018-06-04T04:33:05.681Z,15.1
2018-06-04T04:34:07.668Z,15.1
2018-06-04T04:35:09.667Z,15.1
2018-06-04T04:36:11.678Z,15.2
2018-06-04T04:37:13.673Z,15.2
2018-06-04T04:38:15.671Z,15.3
2018-06-04T04:39:18.260Z,15.3
2018-06-04T04:40:20.252Z,15.3
2018-06-04T04:41:22.263Z,15.3
2018-06-04T04:42:24.253Z,15.4
2018-06-04T04:43:26.533Z,15.4
2018-06-04T04:44:28.536Z,15.4
2018-06-04T04:45:30.530Z,15.4
2018-06-04T04:46:32.530Z,15.4
2018-06-04T04:47:34.525Z,15.5
2018-06-04T04:48:36.524Z,15.5
2018-06-04T04:49:38.521Z,15.5
2018-06-04T04:50:40.500Z,15.5
2018-06-04T04:51:42.793Z,15.5
2018-06-04T04:52:44.792Z,15.5
2018-06-04T04:53:46.784Z,15.6
2018-06-04T04:54:48.782Z,15.6
2018-06-04T04:55:50.772Z,15.6
2018-06-04T04:56:52.769Z,15.8
2018-06-04T04:57:55.338Z,15.8
2018-06-04T04:58:57.619Z,15.8
2018-06-04T04:59:59.897Z,15.8
2018-06-04T05:01:02.272Z,15.8
2018-06-04T05:02:04.579Z,15.8
2018-06-04T05:03:06.571Z,15.8
2018-06-04T05:04:08.868Z,15.9
2018-06-04T05:05:10.870Z,15.9
2018-06-04T05:06:12.864Z,15.9
2018-06-04T05:07:14.861Z,16
2018-06-04T05:08:16.852Z,16.1
2018-06-04T05:09:19.250Z,16.1
2018-06-04T05:10:21.245Z,16.1
2018-06-04T05:11:23.231Z,16.1
2018-06-04T05:12:25.234Z,16.1
2018-06-04T05:13:27.232Z,16.1
2018-06-04T05:14:29.227Z,16.2
2018-06-04T05:15:31.887Z,16.2
2018-06-04T05:16:33.885Z,16.3
2018-06-04T05:17:35.878Z,16.3
2018-06-04T05:18:38.155Z,16.3
2018-06-04T05:19:40.148Z,16.3
2018-06-04T05:20:42.537Z,16.3
2018-06-04T05:21:44.548Z,16.4
2018-06-04T05:22:46.539Z,16.4
2018-06-04T05:23:48.540Z,16.4
2018-06-04T05:24:50.547Z,16.4
2018-06-04T05:25:52.534Z,16.5
2018-06-04T05:26:54.542Z,16.5
2018-06-04T05:27:56.539Z,16.5
2018-06-04T05:28:58.544Z,16.5
2018-06-04T05:30:00.541Z,16.5
2018-06-04T05:31:02.816Z,16.6
2018-06-04T05:32:05.108Z,16.6
2018-06-04T05:33:07.399Z,16.6
2018-06-04T05:34:09.405Z,16.7
2018-06-04T05:35:11.399Z,16.8
2018-06-04T05:36:13.398Z,16.8
2018-06-04T05:37:15.396Z,16.7
2018-06-04T05:38:17.398Z,16.8
2018-06-04T05:39:19.400Z,16.8
2018-06-04T05:40:21.691Z,16.8
2018-06-04T05:41:23.699Z,16.8
2018-06-04T05:42:25.725Z,16.9
2018-06-04T05:43:27.685Z,16.9
2018-06-04T05:44:29.982Z,16.9
2018-06-04T05:45:32.260Z,16.9
2018-06-04T05:46:34.924Z,16.9
2018-06-04T05:47:36.915Z,16.9
2018-06-04T05:48:38.909Z,16.9
2018-06-04T05:49:40.916Z,16.9
2018-06-04T05:50:42.903Z,17
2018-06-04T05:51:44.900Z,17
2018-06-04T05:52:46.904Z,17
2018-06-04T05:53:49.463Z,17.1
2018-06-04T05:54:51.454Z,17.1
2018-06-04T05:55:53.453Z,17.1
2018-06-04T05:56:55.460Z,17.2
2018-06-04T05:57:57.466Z,17.2
2018-06-04T05:58:59.451Z,17.2
2018-06-04T06:00:01.449Z,17.2
2018-06-04T06:01:03.460Z,17.3
2018-06-04T06:02:05.752Z,17.2
2018-06-04T06:03:07.765Z,17.3
2018-06-04T06:04:10.032Z,17.3
2018-06-04T06:05:12.035Z,17.3
2018-06-04T06:06:14.300Z,17.3
2018-06-04T06:07:16.301Z,17.3
2018-06-04T06:08:18.306Z,17.3
2018-06-04T06:09:20.688Z,17.4
2018-06-04T06:10:22.685Z,17.4
2018-06-04T06:11:25.074Z,17.4
2018-06-04T06:12:27.356Z,17.5
2018-06-04T06:13:29.347Z,17.5
2018-06-04T06:14:31.347Z,17.6
2018-06-04T06:15:33.643Z,17.5
2018-06-04T06:16:36.317Z,17.6
2018-06-04T06:17:38.312Z,17.5
2018-06-04T06:18:40.324Z,17.5
2018-06-04T06:19:42.640Z,17.5
2018-06-04T06:20:44.935Z,17.6
2018-06-04T06:21:46.937Z,17.6
2018-06-04T06:22:48.949Z,17.7
2018-06-04T06:23:51.230Z,17.7
2018-06-04T06:24:53.215Z,17.6
2018-06-04T06:25:55.494Z,17.7
2018-06-04T06:26:57.490Z,17.7
2018-06-04T06:27:59.486Z,17.8
2018-06-04T06:29:01.485Z,17.7
2018-06-04T06:30:03.817Z,17.7
2018-06-04T06:31:05.817Z,17.8
2018-06-04T06:32:07.806Z,17.8
2018-06-04T06:33:09.804Z,17.8
2018-06-04T06:34:11.798Z,17.9
2018-06-04T06:35:13.809Z,17.9
2018-06-04T06:36:15.804Z,18
2018-06-04T06:37:17.814Z,18
2018-06-04T06:38:19.819Z,18
2018-06-04T06:39:21.813Z,18
2018-06-04T06:40:23.824Z,18
2018-06-04T06:41:25.824Z,18.1
2018-06-04T06:42:27.830Z,18
2018-06-04T06:43:29.826Z,18.1
2018-06-04T06:44:31.817Z,18.1
2018-06-04T06:45:34.152Z,18.1
2018-06-04T06:46:36.199Z,18.1
2018-06-04T06:47:38.254Z,18.2
2018-06-04T06:48:40.307Z,18.2
2018-06-04T06:49:42.390Z,18.3
2018-06-04T06:50:44.434Z,18.2
2018-06-04T06:51:46.538Z,18.1
2018-06-04T06:52:48.580Z,18.1
2018-06-04T06:53:50.678Z,18.1
2018-06-04T06:54:52.716Z,18.1
2018-06-04T06:55:55.107Z,18.1
2018-06-04T06:56:57.159Z,18.2
2018-06-04T06:57:59.201Z,18.1
2018-06-04T06:59:01.241Z,18.1
2018-06-04T07:00:03.945Z,18.1
2018-06-04T07:01:06.052Z,18.2
2018-06-04T07:02:08.204Z,18.2
2018-06-04T07:03:10.229Z,18.1
2018-06-04T07:04:12.287Z,18.1
2018-06-04T07:05:14.400Z,18.1
2018-06-04T07:06:16.444Z,18.1
2018-06-04T07:07:18.604Z,18.2
2018-06-04T07:08:20.649Z,18.2
2018-06-04T07:09:22.691Z,18.2
2018-06-04T07:10:24.739Z,18.2
2018-06-04T07:11:26.850Z,18.3
2018-06-04T07:12:28.917Z,18.3
2018-06-04T07:13:31.028Z,18.2
2018-06-04T07:14:33.400Z,18.3
2018-06-04T07:15:35.496Z,18.4
2018-06-04T07:16:37.542Z,18.4
2018-06-04T07:17:39.579Z,18.5
2018-06-04T07:18:41.630Z,18.5
2018-06-04T07:19:43.673Z,18.5
2018-06-04T07:20:45.717Z,18.5
2018-06-04T07:21:47.758Z,18.5
2018-06-04T07:22:50.771Z,18.6
2018-06-04T07:23:52.817Z,18.5
2018-06-04T07:24:54.854Z,18.5
2018-06-04T07:25:56.901Z,18.5
2018-06-04T07:26:58.909Z,18.5
2018-06-04T07:28:00.918Z,18.6
2018-06-04T07:29:02.902Z,18.7
2018-06-04T07:30:05.199Z,18.8
2018-06-04T07:31:07.199Z,18.7
2018-06-04T07:32:09.580Z,18.7
2018-06-04T07:33:11.591Z,18.7
2018-06-04T07:34:13.880Z,18.6
2018-06-04T07:35:15.882Z,18.6
2018-06-04T07:36:17.878Z,18.7
2018-06-04T07:37:20.158Z,18.7
2018-06-04T07:38:22.173Z,18.6
2018-06-04T07:39:24.174Z,18.7
2018-06-04T07:40:26.193Z,18.7
2018-06-04T07:41:28.481Z,18.7
2018-06-04T07:42:30.478Z,18.7
2018-06-04T07:43:33.738Z,18.7
2018-06-04T07:44:35.824Z,18.7
2018-06-04T07:45:38.742Z,18.6
2018-06-04T07:46:41.435Z,18.6
2018-06-04T07:47:43.496Z,18.6
2018-06-04T07:48:50.074Z,18.7
2018-06-04T07:49:52.725Z,18.7
2018-06-04T07:50:54.672Z,18.6
2018-06-04T07:51:56.666Z,18.6
2018-06-04T07:52:58.670Z,18.7
2018-06-04T07:54:00.707Z,18.8
2018-06-04T07:55:02.698Z,18.9
2018-06-04T07:56:05.006Z,18.9
2018-06-04T07:57:07.013Z,18.8
2018-06-04T07:58:09.305Z,18.7
2018-06-04T07:59:11.585Z,18.8
2018-06-04T08:00:13.592Z,18.7
2018-06-04T08:01:15.593Z,18.5
2018-06-04T08:02:17.598Z,18.6
2018-06-04T08:03:19.610Z,18.6
2018-06-04T08:04:21.695Z,18.7
2018-06-04T08:05:23.904Z,18.7
2018-06-04T08:06:25.918Z,18.7
2018-06-04T08:07:28.217Z,18.7
2018-06-04T08:08:30.214Z,18.7
2018-06-04T08:09:32.209Z,18.8
2018-06-04T08:10:34.213Z,18.8
2018-06-04T08:11:36.225Z,18.7
2018-06-04T08:12:38.230Z,18.7
2018-06-04T08:13:40.230Z,18.7
2018-06-04T08:14:42.229Z,18.6
2018-06-04T08:15:44.241Z,18.5
2018-06-04T08:16:46.230Z,18.5
2018-06-04T08:17:48.245Z,18.6
2018-06-04T08:18:50.244Z,18.5
2018-06-04T08:19:52.829Z,18.6
2018-06-04T08:20:54.831Z,18.6
2018-06-04T08:21:59.216Z,18.7
2018-06-04T08:23:01.221Z,18.7
2018-06-04T08:24:03.288Z,18.8
2018-06-04T08:25:05.505Z,18.9
2018-06-04T08:26:07.508Z,18.9
2018-06-04T08:27:09.503Z,19
2018-06-04T08:28:11.509Z,19
2018-06-04T08:29:13.549Z,18.9
2018-06-04T08:30:15.517Z,18.9
2018-06-04T08:31:17.526Z,19
2018-06-04T08:32:19.527Z,19
2018-06-04T08:33:22.388Z,19
2018-06-04T08:34:24.391Z,18.9
2018-06-04T08:35:26.382Z,18.8
2018-06-04T08:36:28.387Z,18.8
2018-06-04T08:37:30.395Z,18.8
2018-06-04T08:38:32.472Z,18.9
2018-06-04T08:39:34.784Z,18.9
2018-06-04T08:40:36.786Z,18.8
2018-06-04T08:41:38.782Z,18.6
2018-06-04T08:42:40.788Z,18.7
2018-06-04T08:43:42.790Z,18.8
2018-06-04T08:44:44.780Z,18.8
2018-06-04T08:45:47.205Z,18.8
2018-06-04T08:46:49.215Z,18.8
2018-06-04T08:47:51.215Z,18.7
2018-06-04T08:48:53.206Z,18.8
2018-06-04T08:49:55.212Z,18.7
2018-06-04T08:50:57.723Z,18.6
2018-06-04T08:51:59.660Z,18.6
2018-06-04T08:53:01.670Z,18.6
2018-06-04T08:54:03.673Z,18.6
2018-06-04T08:55:05.669Z,18.6
2018-06-04T08:56:07.657Z,18.6
2018-06-04T08:57:09.652Z,18.5
2018-06-04T08:58:12.043Z,18.5
2018-06-04T08:59:14.039Z,18.6
2018-06-04T09:00:16.037Z,18.5
2018-06-04T09:01:18.350Z,18.5
2018-06-04T09:02:20.351Z,18.4
2018-06-04T09:03:22.358Z,18.4
2018-06-04T09:04:24.743Z,18.3
2018-06-04T09:05:26.739Z,18.5
2018-06-04T09:06:28.749Z,18.5
2018-06-04T09:07:30.739Z,18.4
2018-06-04T09:08:32.745Z,18.4
2018-06-04T09:09:34.753Z,18.5
2018-06-04T09:10:36.753Z,18.5
2018-06-04T09:11:38.761Z,18.5
2018-06-04T09:12:40.751Z,18.5
2018-06-04T09:13:42.749Z,18.6
2018-06-04T09:14:44.751Z,18.6
2018-06-04T09:15:47.248Z,18.6
2018-06-04T09:16:49.403Z,18.6
2018-06-04T09:17:51.733Z,18.6
2018-06-04T09:18:53.771Z,18.7
2018-06-04T09:19:55.822Z,18.7
2018-06-04T09:20:57.861Z,18.8
2018-06-04T09:21:59.925Z,18.7
2018-06-04T09:23:01.966Z,18.8
2018-06-04T09:24:04.301Z,18.8
2018-06-04T09:25:07.097Z,18.8
2018-06-04T09:26:09.133Z,18.8
2018-06-04T09:27:11.176Z,18.8
2018-06-04T09:28:13.224Z,18.8
2018-06-04T09:29:15.295Z,18.8
2018-06-04T09:30:17.342Z,18.7
2018-06-04T09:31:19.388Z,18.8
2018-06-04T09:32:21.928Z,18.7
2018-06-04T09:33:24.265Z,18.8
2018-06-04T09:34:26.314Z,18.9
2018-06-04T09:35:28.360Z,18.8
2018-06-04T09:36:30.421Z,18.9
2018-06-04T09:37:32.471Z,18.8
2018-06-04T09:38:34.909Z,18.9
2018-06-04T09:39:36.948Z,18.8
2018-06-04T09:40:38.986Z,19
2018-06-04T09:41:42.786Z,19
2018-06-04T09:42:46.024Z,18.9
2018-06-04T09:43:49.140Z,18.9
2018-06-04T09:44:51.558Z,18.9
2018-06-04T09:45:53.605Z,19
2018-06-04T09:46:55.655Z,18.9
2018-06-04T09:47:57.692Z,18.9
2018-06-04T09:48:59.742Z,18.9
2018-06-04T09:50:02.190Z,18.9
2018-06-04T09:51:04.222Z,19
2018-06-04T09:52:06.277Z,18.9
2018-06-04T09:53:08.312Z,18.7
2018-06-04T09:54:10.813Z,18.8
2018-06-04T09:55:13.658Z,18.8
2018-06-04T09:56:15.706Z,18.7
2018-06-04T09:57:17.759Z,18.7
2018-06-04T09:58:19.818Z,18.7
2018-06-04T09:59:21.860Z,18.8
2018-06-04T10:00:24.375Z,18.7
2018-06-04T10:01:26.699Z,18.7
2018-06-04T10:02:28.971Z,18.8
2018-06-04T10:03:31.086Z,18.7
2018-06-04T10:04:33.513Z,18.8
2018-06-04T10:05:35.586Z,19
2018-06-04T10:06:38.040Z,18.9
2018-06-04T10:07:40.084Z,19
2018-06-04T10:08:42.122Z,19.1
2018-06-04T10:09:44.474Z,19.1
2018-06-04T10:10:46.515Z,19.1
2018-06-04T10:11:48.558Z,19.2
2018-06-04T10:12:50.855Z,19.3
2018-06-04T10:13:52.858Z,19.3
2018-06-04T10:14:54.859Z,19.3
2018-06-04T10:15:57.250Z,19.4
2018-06-04T10:16:59.254Z,19.5
2018-06-04T10:18:01.294Z,19.5
2018-06-04T10:19:03.288Z,19.3
2018-06-04T10:20:05.326Z,19.3
2018-06-04T10:21:07.756Z,19.3
2018-06-04T10:22:09.810Z,19.4
2018-06-04T10:23:11.850Z,19.4
2018-06-04T10:24:13.899Z,19.3
2018-06-04T10:25:16.237Z,19.4
2018-06-04T10:26:18.275Z,19.4
2018-06-04T10:27:20.319Z,19.5
2018-06-04T10:28:22.360Z,19.5
2018-06-04T10:29:24.410Z,19.5
2018-06-04T10:30:26.461Z,19.5
2018-06-04T10:31:28.698Z,19.4
2018-06-04T10:32:31.950Z,19.5
2018-06-04T10:33:34.880Z,19.5
2018-06-04T10:34:37.526Z,19.5
2018-06-04T10:35:40.578Z,19.5
2018-06-04T10:36:42.943Z,19.5
2018-06-04T10:37:45.229Z,19.4
2018-06-04T10:38:47.344Z,19.4
2018-06-04T10:39:49.423Z,19.3
2018-06-04T10:40:51.549Z,19.4
2018-06-04T10:41:53.604Z,19.4
2018-06-04T10:42:55.792Z,19.3
2018-06-04T10:43:57.874Z,19.3
2018-06-04T10:44:59.926Z,19.3
2018-06-04T10:46:02.053Z,19.4
2018-06-04T10:47:04.104Z,19.3
2018-06-04T10:48:06.331Z,19.3
2018-06-04T10:49:08.765Z,19.3
2018-06-04T10:50:11.234Z,19.2
2018-06-04T10:51:13.279Z,19.3
2018-06-04T10:52:15.475Z,19.3
2018-06-04T10:53:18.148Z,19.2
2018-06-04T10:54:20.148Z,19.2
2018-06-04T10:55:22.431Z,19.2
2018-06-04T10:56:24.443Z,19.3
2018-06-04T10:57:26.497Z,19.2
2018-06-04T10:58:28.541Z,19.3
2018-06-04T10:59:30.586Z,19.2
2018-06-04T11:00:32.883Z,19.2
2018-06-04T11:01:34.881Z,19.1
2018-06-04T11:02:37.586Z,19.1
2018-06-04T11:03:39.585Z,19.2
2018-06-04T11:04:41.597Z,19.2
2018-06-04T11:05:43.599Z,19.2
2018-06-04T11:06:45.876Z,19.3
2018-06-04T11:07:47.882Z,19.3
2018-06-04T11:08:49.896Z,19.4
2018-06-04T11:09:52.183Z,19.4
2018-06-04T11:10:54.211Z,19.4
2018-06-04T11:11:56.889Z,19.2
2018-06-04T11:12:58.903Z,19.3
2018-06-04T11:14:01.187Z,19.3
2018-06-04T11:15:03.474Z,19.2
2018-06-04T11:16:05.773Z,19.3
2018-06-04T11:17:08.073Z,19.3
2018-06-04T11:18:10.116Z,19.1
2018-06-04T11:19:12.110Z,19.2
2018-06-04T11:20:14.122Z,19.3
2018-06-04T11:21:16.145Z,19.3
2018-06-04T11:22:18.149Z,19.3
2018-06-04T11:23:20.159Z,19.4
2018-06-04T11:24:22.168Z,19.3
2018-06-04T11:25:24.184Z,19.3
2018-06-04T11:26:26.217Z,19.5
2018-06-04T11:27:28.595Z,19.5
2018-06-04T11:28:30.633Z,19.4
2018-06-04T11:29:32.646Z,19.6
2018-06-04T11:30:35.078Z,19.6
2018-06-04T11:31:37.090Z,19.6
2018-06-04T11:32:39.097Z,19.7
2018-06-04T11:33:41.110Z,19.6
2018-06-04T11:34:43.124Z,19.7
2018-06-04T11:35:45.122Z,19.8
2018-06-04T11:36:47.409Z,19.8
2018-06-04T11:37:49.402Z,19.9
2018-06-04T11:38:51.403Z,19.9
2018-06-04T11:39:53.425Z,19.7
2018-06-04T11:40:55.447Z,19.8
2018-06-04T11:41:57.448Z,19.6
2018-06-04T11:42:59.453Z,19.5
2018-06-04T11:44:01.456Z,19.6
2018-06-04T11:45:03.755Z,19.6
2018-06-04T11:46:06.050Z,19.7
2018-06-04T11:47:08.082Z,19.6
2018-06-04T11:48:10.107Z,19.7
2018-06-04T11:49:12.103Z,19.8
2018-06-04T11:50:14.125Z,19.7
2018-06-04T11:51:16.124Z,19.6
2018-06-04T11:52:18.146Z,19.7
2018-06-04T11:53:20.155Z,19.7
2018-06-04T11:54:22.157Z,19.7
2018-06-04T11:55:24.172Z,19.7
2018-06-04T11:56:26.674Z,19.8
2018-06-04T11:57:29.039Z,19.9
2018-06-04T11:58:32.002Z,19.9
2018-06-04T11:59:34.006Z,19.8
2018-06-04T12:00:36.029Z,19.8
2018-06-04T12:01:38.020Z,19.9
2018-06-04T12:02:40.359Z,20
2018-06-04T12:03:42.374Z,20
2018-06-04T12:04:44.382Z,20.1
2018-06-04T12:05:46.397Z,20
2018-06-04T12:06:48.389Z,20
2018-06-04T12:07:50.685Z,19.9
2018-06-04T12:08:52.991Z,19.8
2018-06-04T12:09:54.985Z,19.8
2018-06-04T12:10:56.998Z,19.9
2018-06-04T12:11:59.019Z,19.9
2018-06-04T12:13:01.015Z,19.9
2018-06-04T12:14:03.412Z,19.9
2018-06-04T12:15:05.416Z,19.9
2018-06-04T12:16:07.435Z,19.8
2018-06-04T12:17:09.460Z,19.6
2018-06-04T12:18:11.474Z,19.7
2018-06-04T12:19:14.060Z,19.8
2018-06-04T12:20:16.065Z,19.7
2018-06-04T12:21:18.060Z,19.7
2018-06-04T12:22:20.356Z,19.7
2018-06-04T12:23:22.358Z,19.7
2018-06-04T12:24:24.644Z,19.8
2018-06-04T12:25:27.025Z,19.7
2018-06-04T12:26:29.025Z,19.7
2018-06-04T12:27:31.043Z,19.9
2018-06-04T12:28:33.041Z,19.7
2018-06-04T12:29:35.046Z,19.7
2018-06-04T12:30:37.043Z,19.8
2018-06-04T12:31:39.055Z,19.8
2018-06-04T12:32:41.061Z,19.8
2018-06-04T12:33:43.065Z,19.6
2018-06-04T12:34:45.060Z,19.6
2018-06-04T12:35:47.349Z,19.7
2018-06-04T12:36:49.354Z,19.6
2018-06-04T12:37:51.639Z,19.6
2018-06-04T12:38:53.640Z,19.6
2018-06-04T12:39:55.645Z,19.6
2018-06-04T12:40:57.648Z,19.6
2018-06-04T12:41:59.641Z,19.7
2018-06-04T12:43:01.922Z,19.6
2018-06-04T12:44:03.940Z,19.6
2018-06-04T12:45:06.227Z,19.6
2018-06-04T12:46:08.233Z,19.6
2018-06-04T12:47:10.516Z,19.6
2018-06-04T12:48:12.521Z,19.6
2018-06-04T12:49:14.800Z,19.6
2018-06-04T12:50:16.799Z,19.5
2018-06-04T12:51:19.089Z,19.5
2018-06-04T12:52:21.094Z,19.5
2018-06-04T12:53:23.089Z,19.3
2018-06-04T12:54:25.506Z,19.4
2018-06-04T12:55:27.485Z,19.5
2018-06-04T12:56:29.505Z,19.5
2018-06-04T12:58:35.733Z,19.5
2018-06-04T12:59:38.011Z,19.5
2018-06-04T13:00:40.021Z,19.4
2018-06-04T13:01:42.017Z,19.4
2018-06-04T13:02:44.022Z,19.4
2018-06-04T13:03:46.035Z,19.5
2018-06-04T13:04:48.413Z,19.4
2018-06-04T13:05:50.733Z,19.4
2018-06-04T13:06:52.736Z,19.4
2018-06-04T13:07:55.294Z,19.4
2018-06-04T13:08:57.310Z,19.5
2018-06-04T13:09:59.591Z,19.2
2018-06-04T13:11:01.972Z,19.4
2018-06-04T13:12:03.986Z,19.4
2018-06-04T13:13:05.980Z,19.4
2018-06-04T13:14:07.985Z,19.4
2018-06-04T13:15:10.281Z,19.3
2018-06-04T13:16:12.568Z,19.4
2018-06-04T13:17:14.573Z,19.4
2018-06-04T13:18:16.573Z,19.4
2018-06-04T13:19:18.581Z,19.3
2018-06-04T13:20:20.882Z,19.3
2018-06-04T13:21:23.189Z,19.3
2018-06-04T13:22:25.186Z,19.2
2018-06-04T13:23:27.184Z,19.2
2018-06-04T13:24:29.189Z,19.2
2018-06-04T13:25:31.187Z,19.3
2018-06-04T13:26:33.192Z,19.3
2018-06-04T13:27:35.902Z,19.3
2018-06-04T13:28:37.911Z,19.3
2018-06-04T13:29:39.900Z,19.1
2018-06-04T13:30:41.901Z,19.2
2018-06-04T13:31:44.191Z,19.4
2018-06-04T13:32:46.199Z,19.3
2018-06-04T13:33:48.199Z,19.3
2018-06-04T13:34:50.206Z,19.3
2018-06-04T13:35:52.230Z,19.3
2018-06-04T13:36:54.215Z,19.3
2018-06-04T13:37:56.213Z,19.3
2018-06-04T13:38:58.218Z,19.4
2018-06-04T13:40:00.496Z,19.5
2018-06-04T13:41:02.509Z,19.3
2018-06-04T13:42:04.506Z,19.3
2018-06-04T13:43:06.512Z,19.4
2018-06-04T13:44:08.513Z,19.4
2018-06-04T13:45:10.809Z,19.3
2018-06-04T13:46:12.808Z,19.5
2018-06-04T13:47:14.808Z,19.5
2018-06-04T13:48:16.807Z,19.5
2018-06-04T13:49:18.809Z,19.5
2018-06-04T13:50:20.826Z,19.4
2018-06-04T13:51:22.805Z,19.5